sensor_id;sensor_type;location;lat;lon;timestamp;P1;P2;P0
44045;PMS7003;29709;52.396;16.796;2023-07-02T00:00:08;5;4;3
44045;PMS7003;29709;52.396;16.796;2023-07-02T00:03:22;4;3;2
44045;PMS7003;29709;52.396;16.796;2023-07-02T00:06:35;3;3;3
44045;PMS7003;29709;52.396;16.796;2023-07-02T00:09:53;5;4;3
44045;PMS7003;29709;52.396;16.796;2023-07-02T00:13:06;6;4;3
44045;PMS7003;29709;52.396;16.796;2023-07-02T00:16:19;3;3;2
44045;PMS7003;29709;52.396;16.796;2023-07-02T00:19:32;4;4;3
44045;PMS7003;29709;52.396;16.796;2023-07-02T00:22:45;3;3;2
44045;PMS7003;29709;52.396;16.796;2023-07-02T00:25:59;3;3;3
44045;PMS7003;29709;52.396;16.796;2023-07-02T00:29:12;5;3;2
44045;PMS7003;29709;52.396;16.796;2023-07-02T00:32:25;4;3;2
44045;PMS7003;29709;52.396;16.796;2023-07-02T00:35:39;3;3;2
44045;PMS7003;29709;52.396;16.796;2023-07-02T00:38:55;2;2;2
44045;PMS7003;29709;52.396;16.796;2023-07-02T00:42:09;2;2;1
44045;PMS7003;29709;52.396;16.796;2023-07-02T00:45:24;2;1;1
44045;PMS7003;29709;52.396;16.796;2023-07-02T00:48:40;3;3;1
44045;PMS7003;29709;52.396;16.796;2023-07-02T00:51:53;0;0;0
44045;PMS7003;29709;52.396;16.796;2023-07-02T00:55:08;4;1;1
44045;PMS7003;29709;52.396;16.796;2023-07-02T00:58:22;1;0;0
44045;PMS7003;29709;52.396;16.796;2023-07-02T01:01:35;0;0;0
44045;PMS7003;29709;52.396;16.796;2023-07-02T01:04:50;0;0;0
44045;PMS7003;29709;52.396;16.796;2023-07-02T01:08:12;0;0;0
44045;PMS7003;29709;52.396;16.796;2023-07-02T01:14:48;1;0;0
44045;PMS7003;29709;52.396;16.796;2023-07-02T01:18:04;0;0;0
44045;PMS7003;29709;52.396;16.796;2023-07-02T01:21:18;0;0;0
44045;PMS7003;29709;52.396;16.796;2023-07-02T01:24:32;0;0;0
44045;PMS7003;29709;52.396;16.796;2023-07-02T01:27:45;1;0;0
44045;PMS7003;29709;52.396;16.796;2023-07-02T01:30:59;0;0;0
44045;PMS7003;29709;52.396;16.796;2023-07-02T01:34:12;0;0;0
44045;PMS7003;29709;52.396;16.796;2023-07-02T01:37:26;0;0;0
44045;PMS7003;29709;52.396;16.796;2023-07-02T01:40:39;0;0;0
44045;PMS7003;29709;52.396;16.796;2023-07-02T01:43:52;0;0;0
44045;PMS7003;29709;52.396;16.796;2023-07-02T01:47:06;0;0;0
44045;PMS7003;29709;52.396;16.796;2023-07-02T01:50:19;0;0;0
44045;PMS7003;29709;52.396;16.796;2023-07-02T01:53:33;1;0;0
44045;PMS7003;29709;52.396;16.796;2023-07-02T01:56:46;1;1;0
44045;PMS7003;29709;52.396;16.796;2023-07-02T01:59:59;0;0;0
44045;PMS7003;29709;52.396;16.796;2023-07-02T02:03:12;0;0;0
44045;PMS7003;29709;52.396;16.796;2023-07-02T02:06:25;0;0;0
44045;PMS7003;29709;52.396;16.796;2023-07-02T02:09:39;0;0;0
44045;PMS7003;29709;52.396;16.796;2023-07-02T02:12:52;0;0;0
44045;PMS7003;29709;52.396;16.796;2023-07-02T02:16:05;0;0;0
44045;PMS7003;29709;52.396;16.796;2023-07-02T02:19:18;1;0;0
44045;PMS7003;29709;52.396;16.796;2023-07-02T02:22:31;0;0;0
44045;PMS7003;29709;52.396;16.796;2023-07-02T02:25:45;0;0;0
44045;PMS7003;29709;52.396;16.796;2023-07-02T02:28:58;1;0;0
44045;PMS7003;29709;52.396;16.796;2023-07-02T02:32:11;1;0;0
44045;PMS7003;29709;52.396;16.796;2023-07-02T02:35:25;0;0;0
44045;PMS7003;29709;52.396;16.796;2023-07-02T02:38:38;0;0;0
44045;PMS7003;29709;52.396;16.796;2023-07-02T02:41:51;0;0;0
44045;PMS7003;29709;52.396;16.796;2023-07-02T02:45:05;0;0;0
44045;PMS7003;29709;52.396;16.796;2023-07-02T02:48:20;1;1;0
44045;PMS7003;29709;52.396;16.796;2023-07-02T02:51:35;0;0;0
44045;PMS7003;29709;52.396;16.796;2023-07-02T02:54:49;1;1;0
44045;PMS7003;29709;52.396;16.796;2023-07-02T02:58:05;1;1;1
44045;PMS7003;29709;52.396;16.796;2023-07-02T03:01:18;1;1;0
44045;PMS7003;29709;52.396;16.796;2023-07-02T03:04:32;1;1;0
44045;PMS7003;29709;52.396;16.796;2023-07-02T03:07:47;1;0;0
44045;PMS7003;29709;52.396;16.796;2023-07-02T03:11:00;1;1;0
44045;PMS7003;29709;52.396;16.796;2023-07-02T03:14:13;1;1;0
44045;PMS7003;29709;52.396;16.796;2023-07-02T03:17:27;2;1;1
44045;PMS7003;29709;52.396;16.796;2023-07-02T03:20:40;0;0;0
44045;PMS7003;29709;52.396;16.796;2023-07-02T03:23:53;0;0;0
44045;PMS7003;29709;52.396;16.796;2023-07-02T03:27:07;1;1;1
44045;PMS7003;29709;52.396;16.796;2023-07-02T03:30:20;4;2;1
44045;PMS7003;29709;52.396;16.796;2023-07-02T03:33:33;1;1;1
44045;PMS7003;29709;52.396;16.796;2023-07-02T03:36:47;1;1;1
44045;PMS7003;29709;52.396;16.796;2023-07-02T03:40:00;0;0;0
44045;PMS7003;29709;52.396;16.796;2023-07-02T03:43:13;3;3;2
44045;PMS7003;29709;52.396;16.796;2023-07-02T03:46:26;1;1;1
44045;PMS7003;29709;52.396;16.796;2023-07-02T03:49:39;1;1;1
44045;PMS7003;29709;52.396;16.796;2023-07-02T03:52:52;1;1;0
44045;PMS7003;29709;52.396;16.796;2023-07-02T03:56:07;2;2;2
44045;PMS7003;29709;52.396;16.796;2023-07-02T03:59:20;1;1;1
44045;PMS7003;29709;52.396;16.796;2023-07-02T04:02:33;2;2;1
44045;PMS7003;29709;52.396;16.796;2023-07-02T04:09:07;1;0;0
44045;PMS7003;29709;52.396;16.796;2023-07-02T04:12:20;3;1;1
44045;PMS7003;29709;52.396;16.796;2023-07-02T04:15:33;1;1;0
44045;PMS7003;29709;52.396;16.796;2023-07-02T04:18:46;1;1;1
44045;PMS7003;29709;52.396;16.796;2023-07-02T04:22:00;1;1;0
44045;PMS7003;29709;52.396;16.796;2023-07-02T04:25:13;1;1;0
44045;PMS7003;29709;52.396;16.796;2023-07-02T04:28:30;1;0;0
44045;PMS7003;29709;52.396;16.796;2023-07-02T04:31:43;0;0;0
44045;PMS7003;29709;52.396;16.796;2023-07-02T04:34:56;0;0;0
44045;PMS7003;29709;52.396;16.796;2023-07-02T04:38:11;1;1;1
44045;PMS7003;29709;52.396;16.796;2023-07-02T04:41:25;2;1;1
44045;PMS7003;29709;52.396;16.796;2023-07-02T04:44:40;0;0;0
44045;PMS7003;29709;52.396;16.796;2023-07-02T04:47:55;1;1;1
44045;PMS7003;29709;52.396;16.796;2023-07-02T04:51:09;0;0;0
44045;PMS7003;29709;52.396;16.796;2023-07-02T04:54:22;0;0;0
44045;PMS7003;29709;52.396;16.796;2023-07-02T04:57:36;1;1;1
44045;PMS7003;29709;52.396;16.796;2023-07-02T05:00:50;1;1;1
44045;PMS7003;29709;52.396;16.796;2023-07-02T05:04:04;0;0;0
44045;PMS7003;29709;52.396;16.796;2023-07-02T05:07:18;0;0;0
44045;PMS7003;29709;52.396;16.796;2023-07-02T05:10:31;0;0;0
44045;PMS7003;29709;52.396;16.796;2023-07-02T05:13:45;1;1;0
44045;PMS7003;29709;52.396;16.796;2023-07-02T05:16:58;0;0;0
44045;PMS7003;29709;52.396;16.796;2023-07-02T05:20:11;2;0;0
44045;PMS7003;29709;52.396;16.796;2023-07-02T05:23:25;1;1;0
44045;PMS7003;29709;52.396;16.796;2023-07-02T05:26:38;1;0;0
44045;PMS7003;29709;52.396;16.796;2023-07-02T05:29:51;1;0;0
44045;PMS7003;29709;52.396;16.796;2023-07-02T05:33:04;0;0;0
44045;PMS7003;29709;52.396;16.796;2023-07-02T05:36:17;0;0;0
44045;PMS7003;29709;52.396;16.796;2023-07-02T05:39:30;0;0;0
44045;PMS7003;29709;52.396;16.796;2023-07-02T05:42:44;1;1;1
44045;PMS7003;29709;52.396;16.796;2023-07-02T05:45:58;3;0;0
44045;PMS7003;29709;52.396;16.796;2023-07-02T05:49:14;0;0;0
44045;PMS7003;29709;52.396;16.796;2023-07-02T05:52:27;1;0;0
44045;PMS7003;29709;52.396;16.796;2023-07-02T05:55:41;1;0;0
44045;PMS7003;29709;52.396;16.796;2023-07-02T05:58:55;1;1;1
44045;PMS7003;29709;52.396;16.796;2023-07-02T06:02:08;0;0;0
44045;PMS7003;29709;52.396;16.796;2023-07-02T06:05:22;0;0;0
44045;PMS7003;29709;52.396;16.796;2023-07-02T06:08:35;0;0;0
44045;PMS7003;29709;52.396;16.796;2023-07-02T06:11:48;1;0;0
44045;PMS7003;29709;52.396;16.796;2023-07-02T06:15:01;0;0;0
44045;PMS7003;29709;52.396;16.796;2023-07-02T06:18:15;0;0;0
44045;PMS7003;29709;52.396;16.796;2023-07-02T06:21:29;1;1;0
44045;PMS7003;29709;52.396;16.796;2023-07-02T06:24:42;0;0;0
44045;PMS7003;29709;52.396;16.796;2023-07-02T06:27:56;0;0;0
44045;PMS7003;29709;52.396;16.796;2023-07-02T06:31:10;2;1;1
44045;PMS7003;29709;52.396;16.796;2023-07-02T06:34:25;1;1;0
44045;PMS7003;29709;52.396;16.796;2023-07-02T06:37:38;2;0;0
44045;PMS7003;29709;52.396;16.796;2023-07-02T06:40:51;1;1;1
44045;PMS7003;29709;52.396;16.796;2023-07-02T06:44:04;1;1;0
44045;PMS7003;29709;52.396;16.796;2023-07-02T06:47:18;1;1;0
44045;PMS7003;29709;52.396;16.796;2023-07-02T06:50:31;0;0;0
44045;PMS7003;29709;52.396;16.796;2023-07-02T06:53:44;2;0;0
44045;PMS7003;29709;52.396;16.796;2023-07-02T06:56:58;1;1;0
44045;PMS7003;29709;52.396;16.796;2023-07-02T07:00:12;1;1;0
44045;PMS7003;29709;52.396;16.796;2023-07-02T07:03:26;0;0;0
44045;PMS7003;29709;52.396;16.796;2023-07-02T07:06:39;1;0;0
44045;PMS7003;29709;52.396;16.796;2023-07-02T07:09:52;4;1;0
44045;PMS7003;29709;52.396;16.796;2023-07-02T07:13:05;1;1;0
44045;PMS7003;29709;52.396;16.796;2023-07-02T07:16:19;0;0;0
44045;PMS7003;29709;52.396;16.796;2023-07-02T07:19:32;2;0;0
44045;PMS7003;29709;52.396;16.796;2023-07-02T07:22:45;0;0;0
44045;PMS7003;29709;52.396;16.796;2023-07-02T07:25:58;0;0;0
44045;PMS7003;29709;52.396;16.796;2023-07-02T07:29:11;0;0;0
44045;PMS7003;29709;52.396;16.796;2023-07-02T07:32:24;0;0;0
44045;PMS7003;29709;52.396;16.796;2023-07-02T07:35:40;0;0;0
44045;PMS7003;29709;52.396;16.796;2023-07-02T07:38:54;1;0;0
44045;PMS7003;29709;52.396;16.796;2023-07-02T07:42:08;0;0;0
44045;PMS7003;29709;52.396;16.796;2023-07-02T07:45:21;1;0;0
44045;PMS7003;29709;52.396;16.796;2023-07-02T07:48:34;3;0;0
44045;PMS7003;29709;52.396;16.796;2023-07-02T07:51:47;0;0;0
44045;PMS7003;29709;52.396;16.796;2023-07-02T07:55:01;1;1;1
44045;PMS7003;29709;52.396;16.796;2023-07-02T07:58:15;4;1;1
44045;PMS7003;29709;52.396;16.796;2023-07-02T08:01:28;0;0;0
44045;PMS7003;29709;52.396;16.796;2023-07-02T08:04:41;0;0;0
44045;PMS7003;29709;52.396;16.796;2023-07-02T08:07:54;1;1;0
44045;PMS7003;29709;52.396;16.796;2023-07-02T08:11:07;2;0;0
44045;PMS7003;29709;52.396;16.796;2023-07-02T08:14:20;1;0;0
44045;PMS7003;29709;52.396;16.796;2023-07-02T08:17:34;0;0;0
44045;PMS7003;29709;52.396;16.796;2023-07-02T08:20:47;0;0;0
44045;PMS7003;29709;52.396;16.796;2023-07-02T08:24:00;0;0;0
44045;PMS7003;29709;52.396;16.796;2023-07-02T08:27:14;1;0;0
44045;PMS7003;29709;52.396;16.796;2023-07-02T08:31:34;2;2;1
44045;PMS7003;29709;52.396;16.796;2023-07-02T08:34:48;1;1;1
44045;PMS7003;29709;52.396;16.796;2023-07-02T08:38:03;1;1;0
44045;PMS7003;29709;52.396;16.796;2023-07-02T08:41:16;1;1;0
44045;PMS7003;29709;52.396;16.796;2023-07-02T08:44:29;0;0;0
44045;PMS7003;29709;52.396;16.796;2023-07-02T08:47:43;1;1;1
44045;PMS7003;29709;52.396;16.796;2023-07-02T08:50:57;1;1;0
44045;PMS7003;29709;52.396;16.796;2023-07-02T08:54:11;2;2;1
44045;PMS7003;29709;52.396;16.796;2023-07-02T08:57:26;3;2;2
44045;PMS7003;29709;52.396;16.796;2023-07-02T09:00:39;2;1;1
44045;PMS7003;29709;52.396;16.796;2023-07-02T09:03:58;2;2;1
44045;PMS7003;29709;52.396;16.796;2023-07-02T09:07:13;2;2;1
44045;PMS7003;29709;52.396;16.796;2023-07-02T09:10:27;5;2;2
44045;PMS7003;29709;52.396;16.796;2023-07-02T09:17:13;1;1;1
44045;PMS7003;29709;52.396;16.796;2023-07-02T09:20:32;1;0;0
44045;PMS7003;29709;52.396;16.796;2023-07-02T09:27:04;2;2;2
44045;PMS7003;29709;52.396;16.796;2023-07-02T09:30:18;3;1;1
44045;PMS7003;29709;52.396;16.796;2023-07-02T09:33:32;1;0;0
44045;PMS7003;29709;52.396;16.796;2023-07-02T09:36:45;1;1;0
44045;PMS7003;29709;52.396;16.796;2023-07-02T09:39:59;0;0;0
44045;PMS7003;29709;52.396;16.796;2023-07-02T09:43:17;1;1;1
44045;PMS7003;29709;52.396;16.796;2023-07-02T09:46:31;2;2;1
44045;PMS7003;29709;52.396;16.796;2023-07-02T09:49:48;1;1;1
44045;PMS7003;29709;52.396;16.796;2023-07-02T09:53:05;1;1;0
44045;PMS7003;29709;52.396;16.796;2023-07-02T09:56:19;1;1;0
44045;PMS7003;29709;52.396;16.796;2023-07-02T09:59:34;1;1;1
44045;PMS7003;29709;52.396;16.796;2023-07-02T10:02:48;2;1;1
44045;PMS7003;29709;52.396;16.796;2023-07-02T10:06:05;4;2;2
44045;PMS7003;29709;52.396;16.796;2023-07-02T10:09:20;2;2;1
44045;PMS7003;29709;52.396;16.796;2023-07-02T10:12:45;1;1;1
44045;PMS7003;29709;52.396;16.796;2023-07-02T10:16:03;1;1;1
44045;PMS7003;29709;52.396;16.796;2023-07-02T10:19:17;1;1;0
44045;PMS7003;29709;52.396;16.796;2023-07-02T10:25:57;2;2;2
44045;PMS7003;29709;52.396;16.796;2023-07-02T10:29:17;1;1;1
44045;PMS7003;29709;52.396;16.796;2023-07-02T10:32:31;3;2;1
44045;PMS7003;29709;52.396;16.796;2023-07-02T10:35:47;0;0;0
44045;PMS7003;29709;52.396;16.796;2023-07-02T10:39:02;3;2;2
44045;PMS7003;29709;52.396;16.796;2023-07-02T10:42:17;1;1;1
44045;PMS7003;29709;52.396;16.796;2023-07-02T10:45:32;1;0;0
44045;PMS7003;29709;52.396;16.796;2023-07-02T10:52:06;2;2;1
44045;PMS7003;29709;52.396;16.796;2023-07-02T10:55:23;2;1;1
44045;PMS7003;29709;52.396;16.796;2023-07-02T11:01:57;3;2;2
44045;PMS7003;29709;52.396;16.796;2023-07-02T11:05:16;2;1;1
44045;PMS7003;29709;52.396;16.796;2023-07-02T11:11:55;1;1;1
44045;PMS7003;29709;52.396;16.796;2023-07-02T11:15:10;2;1;1
44045;PMS7003;29709;52.396;16.796;2023-07-02T11:18:29;1;0;0
44045;PMS7003;29709;52.396;16.796;2023-07-02T11:21:50;2;1;1
44045;PMS7003;29709;52.396;16.796;2023-07-02T11:28:31;2;1;1
44045;PMS7003;29709;52.396;16.796;2023-07-02T11:31:47;0;0;0
44045;PMS7003;29709;52.396;16.796;2023-07-02T11:35:00;2;2;2
44045;PMS7003;29709;52.396;16.796;2023-07-02T11:38:14;1;1;1
44045;PMS7003;29709;52.396;16.796;2023-07-02T11:41:35;1;1;1
44045;PMS7003;29709;52.396;16.796;2023-07-02T11:44:51;2;1;1
44045;PMS7003;29709;52.396;16.796;2023-07-02T11:48:05;1;0;0
44045;PMS7003;29709;52.396;16.796;2023-07-02T11:51:18;2;2;2
44045;PMS7003;29709;52.396;16.796;2023-07-02T11:54:31;3;3;2
44045;PMS7003;29709;52.396;16.796;2023-07-02T11:57:44;3;2;2
44045;PMS7003;29709;52.396;16.796;2023-07-02T12:01:01;2;2;1
44045;PMS7003;29709;52.396;16.796;2023-07-02T12:04:15;3;2;1
44045;PMS7003;29709;52.396;16.796;2023-07-02T12:07:30;1;1;1
44045;PMS7003;29709;52.396;16.796;2023-07-02T12:10:43;1;1;1
44045;PMS7003;29709;52.396;16.796;2023-07-02T12:13:57;2;2;1
44045;PMS7003;29709;52.396;16.796;2023-07-02T12:17:10;3;1;1
44045;PMS7003;29709;52.396;16.796;2023-07-02T12:20:26;3;1;0
44045;PMS7003;29709;52.396;16.796;2023-07-02T12:23:39;3;2;2
44045;PMS7003;29709;52.396;16.796;2023-07-02T12:26:53;4;1;1
44045;PMS7003;29709;52.396;16.796;2023-07-02T12:30:06;3;2;1
44045;PMS7003;29709;52.396;16.796;2023-07-02T12:33:21;3;1;1
44045;PMS7003;29709;52.396;16.796;2023-07-02T12:36:34;3;2;2
44045;PMS7003;29709;52.396;16.796;2023-07-02T12:39:47;3;1;1
44045;PMS7003;29709;52.396;16.796;2023-07-02T12:43:01;3;3;2
44045;PMS7003;29709;52.396;16.796;2023-07-02T12:46:14;2;2;1
44045;PMS7003;29709;52.396;16.796;2023-07-02T12:49:28;2;1;1
44045;PMS7003;29709;52.396;16.796;2023-07-02T12:52:41;3;2;2
44045;PMS7003;29709;52.396;16.796;2023-07-02T12:55:54;0;0;0
44045;PMS7003;29709;52.396;16.796;2023-07-02T12:59:10;4;2;2
44045;PMS7003;29709;52.396;16.796;2023-07-02T13:02:23;1;1;1
44045;PMS7003;29709;52.396;16.796;2023-07-02T13:05:37;2;2;1
44045;PMS7003;29709;52.396;16.796;2023-07-02T13:08:51;3;2;1
44045;PMS7003;29709;52.396;16.796;2023-07-02T13:12:05;1;1;1
44045;PMS7003;29709;52.396;16.796;2023-07-02T13:15:19;1;1;0
44045;PMS7003;29709;52.396;16.796;2023-07-02T13:18:33;0;0;0
44045;PMS7003;29709;52.396;16.796;2023-07-02T13:21:46;1;0;0
44045;PMS7003;29709;52.396;16.796;2023-07-02T13:24:59;0;0;0
44045;PMS7003;29709;52.396;16.796;2023-07-02T13:28:12;1;1;1
44045;PMS7003;29709;52.396;16.796;2023-07-02T13:31:25;2;1;1
44045;PMS7003;29709;52.396;16.796;2023-07-02T13:34:39;4;2;2
44045;PMS7003;29709;52.396;16.796;2023-07-02T13:37:53;1;0;0
44045;PMS7003;29709;52.396;16.796;2023-07-02T13:41:06;3;1;1
44045;PMS7003;29709;52.396;16.796;2023-07-02T13:44:19;5;2;2
44045;PMS7003;29709;52.396;16.796;2023-07-02T13:47:32;3;3;2
44045;PMS7003;29709;52.396;16.796;2023-07-02T13:50:46;1;1;1
44045;PMS7003;29709;52.396;16.796;2023-07-02T13:53:59;3;2;2
44045;PMS7003;29709;52.396;16.796;2023-07-02T13:57:12;3;1;0
44045;PMS7003;29709;52.396;16.796;2023-07-02T14:00:27;5;1;1
44045;PMS7003;29709;52.396;16.796;2023-07-02T14:03:41;2;1;1
44045;PMS7003;29709;52.396;16.796;2023-07-02T14:06:54;3;3;2
44045;PMS7003;29709;52.396;16.796;2023-07-02T14:10:08;3;3;3
44045;PMS7003;29709;52.396;16.796;2023-07-02T14:13:22;2;2;1
44045;PMS7003;29709;52.396;16.796;2023-07-02T14:16:35;1;1;1
44045;PMS7003;29709;52.396;16.796;2023-07-02T14:19:48;2;2;1
44045;PMS7003;29709;52.396;16.796;2023-07-02T14:23:01;4;3;3
44045;PMS7003;29709;52.396;16.796;2023-07-02T14:26:19;5;3;3
44045;PMS7003;29709;52.396;16.796;2023-07-02T14:29:32;1;0;0
44045;PMS7003;29709;52.396;16.796;2023-07-02T14:32:46;5;4;3
44045;PMS7003;29709;52.396;16.796;2023-07-02T14:36:00;4;3;2
44045;PMS7003;29709;52.396;16.796;2023-07-02T14:39:13;3;3;1
44045;PMS7003;29709;52.396;16.796;2023-07-02T14:42:26;4;3;2
44045;PMS7003;29709;52.396;16.796;2023-07-02T14:45:44;4;2;2
44045;PMS7003;29709;52.396;16.796;2023-07-02T14:49:00;1;1;0
44045;PMS7003;29709;52.396;16.796;2023-07-02T14:52:13;5;3;2
44045;PMS7003;29709;52.396;16.796;2023-07-02T14:55:27;4;3;2
44045;PMS7003;29709;52.396;16.796;2023-07-02T14:58:40;3;2;2
44045;PMS7003;29709;52.396;16.796;2023-07-02T15:01:53;3;3;2
44045;PMS7003;29709;52.396;16.796;2023-07-02T15:05:07;3;3;2
44045;PMS7003;29709;52.396;16.796;2023-07-02T15:08:20;3;2;2
44045;PMS7003;29709;52.396;16.796;2023-07-02T15:11:34;2;1;1
44045;PMS7003;29709;52.396;16.796;2023-07-02T15:14:47;4;4;3
44045;PMS7003;29709;52.396;16.796;2023-07-02T15:18:00;5;2;2
44045;PMS7003;29709;52.396;16.796;2023-07-02T15:21:15;4;3;2
44045;PMS7003;29709;52.396;16.796;2023-07-02T15:24:30;3;3;3
44045;PMS7003;29709;52.396;16.796;2023-07-02T15:27:43;5;4;3
44045;PMS7003;29709;52.396;16.796;2023-07-02T15:30:58;5;5;4
44045;PMS7003;29709;52.396;16.796;2023-07-02T15:34:16;4;3;2
44045;PMS7003;29709;52.396;16.796;2023-07-02T15:37:32;5;1;1
44045;PMS7003;29709;52.396;16.796;2023-07-02T15:40:45;5;3;3
44045;PMS7003;29709;52.396;16.796;2023-07-02T15:44:00;4;2;2
44045;PMS7003;29709;52.396;16.796;2023-07-02T15:47:16;8;5;4
44045;PMS7003;29709;52.396;16.796;2023-07-02T15:50:29;5;4;3
44045;PMS7003;29709;52.396;16.796;2023-07-02T15:53:42;3;3;2
44045;PMS7003;29709;52.396;16.796;2023-07-02T15:56:55;3;3;3
44045;PMS7003;29709;52.396;16.796;2023-07-02T16:00:09;4;3;2
44045;PMS7003;29709;52.396;16.796;2023-07-02T16:03:24;4;2;2
44045;PMS7003;29709;52.396;16.796;2023-07-02T16:06:37;3;2;1
44045;PMS7003;29709;52.396;16.796;2023-07-02T16:09:50;5;2;1
44045;PMS7003;29709;52.396;16.796;2023-07-02T16:13:04;6;5;5
44045;PMS7003;29709;52.396;16.796;2023-07-02T16:16:17;3;3;2
44045;PMS7003;29709;52.396;16.796;2023-07-02T16:19:30;5;4;3
44045;PMS7003;29709;52.396;16.796;2023-07-02T16:22:43;5;4;3
44045;PMS7003;29709;52.396;16.796;2023-07-02T16:25:59;6;4;3
44045;PMS7003;29709;52.396;16.796;2023-07-02T16:29:14;4;2;2
44045;PMS7003;29709;52.396;16.796;2023-07-02T16:32:28;5;3;2
44045;PMS7003;29709;52.396;16.796;2023-07-02T16:35:44;9;4;2
44045;PMS7003;29709;52.396;16.796;2023-07-02T16:38:58;5;4;3
44045;PMS7003;29709;52.396;16.796;2023-07-02T16:42:11;1;0;0
44045;PMS7003;29709;52.396;16.796;2023-07-02T16:45:25;4;3;3
44045;PMS7003;29709;52.396;16.796;2023-07-02T16:48:38;4;3;2
44045;PMS7003;29709;52.396;16.796;2023-07-02T16:51:52;4;3;2
44045;PMS7003;29709;52.396;16.796;2023-07-02T16:55:06;5;3;2
44045;PMS7003;29709;52.396;16.796;2023-07-02T16:58:20;2;2;1
44045;PMS7003;29709;52.396;16.796;2023-07-02T17:01:34;2;2;1
44045;PMS7003;29709;52.396;16.796;2023-07-02T17:04:47;3;2;2
44045;PMS7003;29709;52.396;16.796;2023-07-02T17:08:00;4;3;2
44045;PMS7003;29709;52.396;16.796;2023-07-02T17:11:13;4;4;3
44045;PMS7003;29709;52.396;16.796;2023-07-02T17:14:27;3;3;2
44045;PMS7003;29709;52.396;16.796;2023-07-02T17:17:45;6;4;3
44045;PMS7003;29709;52.396;16.796;2023-07-02T17:20:58;4;3;3
44045;PMS7003;29709;52.396;16.796;2023-07-02T17:24:12;3;2;2
44045;PMS7003;29709;52.396;16.796;2023-07-02T17:27:26;4;3;2
44045;PMS7003;29709;52.396;16.796;2023-07-02T17:30:41;5;4;3
44045;PMS7003;29709;52.396;16.796;2023-07-02T17:33:54;5;4;2
44045;PMS7003;29709;52.396;16.796;2023-07-02T17:37:08;4;3;3
44045;PMS7003;29709;52.396;16.796;2023-07-02T17:40:22;3;2;1
44045;PMS7003;29709;52.396;16.796;2023-07-02T17:43:36;6;4;3
44045;PMS7003;29709;52.396;16.796;2023-07-02T17:47:00;6;4;3
44045;PMS7003;29709;52.396;16.796;2023-07-02T17:50:10;4;3;2
44045;PMS7003;29709;52.396;16.796;2023-07-02T17:53:24;3;3;2
44045;PMS7003;29709;52.396;16.796;2023-07-02T17:56:37;9;6;3
44045;PMS7003;29709;52.396;16.796;2023-07-02T17:59:51;3;2;1
44045;PMS7003;29709;52.396;16.796;2023-07-02T18:03:08;5;4;3
44045;PMS7003;29709;52.396;16.796;2023-07-02T18:06:21;3;3;2
44045;PMS7003;29709;52.396;16.796;2023-07-02T18:09:37;5;3;2
44045;PMS7003;29709;52.396;16.796;2023-07-02T18:12:52;3;3;2
44045;PMS7003;29709;52.396;16.796;2023-07-02T18:16:05;7;4;3
44045;PMS7003;29709;52.396;16.796;2023-07-02T18:19:19;3;2;0
44045;PMS7003;29709;52.396;16.796;2023-07-02T18:22:41;5;5;4
44045;PMS7003;29709;52.396;16.796;2023-07-02T18:25:54;3;2;2
44045;PMS7003;29709;52.396;16.796;2023-07-02T18:29:12;4;4;3
44045;PMS7003;29709;52.396;16.796;2023-07-02T18:32:25;2;2;2
44045;PMS7003;29709;52.396;16.796;2023-07-02T18:35:43;2;2;1
44045;PMS7003;29709;52.396;16.796;2023-07-02T18:38:57;3;2;2
44045;PMS7003;29709;52.396;16.796;2023-07-02T18:42:11;4;3;2
44045;PMS7003;29709;52.396;16.796;2023-07-02T18:45:25;4;4;2
44045;PMS7003;29709;52.396;16.796;2023-07-02T18:48:39;4;3;2
44045;PMS7003;29709;52.396;16.796;2023-07-02T18:51:52;3;3;2
44045;PMS7003;29709;52.396;16.796;2023-07-02T18:55:06;4;2;2
44045;PMS7003;29709;52.396;16.796;2023-07-02T18:58:20;5;4;2
44045;PMS7003;29709;52.396;16.796;2023-07-02T19:01:33;2;2;2
44045;PMS7003;29709;52.396;16.796;2023-07-02T19:04:50;4;4;3
44045;PMS7003;29709;52.396;16.796;2023-07-02T19:08:04;1;1;1
44045;PMS7003;29709;52.396;16.796;2023-07-02T19:11:17;3;2;2
44045;PMS7003;29709;52.396;16.796;2023-07-02T19:14:31;4;3;3
44045;PMS7003;29709;52.396;16.796;2023-07-02T19:17:48;4;3;3
44045;PMS7003;29709;52.396;16.796;2023-07-02T19:21:01;1;1;0
44045;PMS7003;29709;52.396;16.796;2023-07-02T19:24:16;5;4;2
44045;PMS7003;29709;52.396;16.796;2023-07-02T19:27:29;5;4;3
44045;PMS7003;29709;52.396;16.796;2023-07-02T19:30:43;2;2;2
44045;PMS7003;29709;52.396;16.796;2023-07-02T19:33:56;3;3;2
44045;PMS7003;29709;52.396;16.796;2023-07-02T19:37:09;4;3;3
44045;PMS7003;29709;52.396;16.796;2023-07-02T19:40:24;4;4;3
44045;PMS7003;29709;52.396;16.796;2023-07-02T19:43:39;4;4;3
44045;PMS7003;29709;52.396;16.796;2023-07-02T19:46:52;4;4;3
44045;PMS7003;29709;52.396;16.796;2023-07-02T19:50:05;4;3;3
44045;PMS7003;29709;52.396;16.796;2023-07-02T19:53:19;3;3;2
44045;PMS7003;29709;52.396;16.796;2023-07-02T19:56:33;4;3;2
44045;PMS7003;29709;52.396;16.796;2023-07-02T19:59:47;3;2;1
44045;PMS7003;29709;52.396;16.796;2023-07-02T20:03:01;3;3;2
44045;PMS7003;29709;52.396;16.796;2023-07-02T20:06:14;7;4;3
44045;PMS7003;29709;52.396;16.796;2023-07-02T20:09:27;4;3;3
44045;PMS7003;29709;52.396;16.796;2023-07-02T20:12:41;4;4;3
44045;PMS7003;29709;52.396;16.796;2023-07-02T20:15:54;6;5;3
44045;PMS7003;29709;52.396;16.796;2023-07-02T20:19:09;6;5;3
44045;PMS7003;29709;52.396;16.796;2023-07-02T20:22:22;4;3;2
44045;PMS7003;29709;52.396;16.796;2023-07-02T20:25:36;4;2;1
44045;PMS7003;29709;52.396;16.796;2023-07-02T20:28:50;5;4;3
44045;PMS7003;29709;52.396;16.796;2023-07-02T20:32:07;5;4;3
44045;PMS7003;29709;52.396;16.796;2023-07-02T20:35:20;5;3;2
44045;PMS7003;29709;52.396;16.796;2023-07-02T20:38:33;4;4;3
44045;PMS7003;29709;52.396;16.796;2023-07-02T20:41:47;5;5;3
44045;PMS7003;29709;52.396;16.796;2023-07-02T20:45:00;3;3;3
44045;PMS7003;29709;52.396;16.796;2023-07-02T20:48:15;4;4;3
44045;PMS7003;29709;52.396;16.796;2023-07-02T20:51:29;6;4;3
44045;PMS7003;29709;52.396;16.796;2023-07-02T20:54:47;6;5;3
44045;PMS7003;29709;52.396;16.796;2023-07-02T20:58:05;4;4;3
44045;PMS7003;29709;52.396;16.796;2023-07-02T21:01:18;6;5;4
44045;PMS7003;29709;52.396;16.796;2023-07-02T21:04:34;4;4;3
44045;PMS7003;29709;52.396;16.796;2023-07-02T21:07:49;4;4;3
44045;PMS7003;29709;52.396;16.796;2023-07-02T21:11:03;4;2;2
44045;PMS7003;29709;52.396;16.796;2023-07-02T21:14:18;7;4;3
44045;PMS7003;29709;52.396;16.796;2023-07-02T21:17:34;6;4;3
44045;PMS7003;29709;52.396;16.796;2023-07-02T21:20:47;5;3;3
44045;PMS7003;29709;52.396;16.796;2023-07-02T21:24:00;4;3;3
44045;PMS7003;29709;52.396;16.796;2023-07-02T21:27:15;4;3;3
44045;PMS7003;29709;52.396;16.796;2023-07-02T21:30:29;2;2;2
44045;PMS7003;29709;52.396;16.796;2023-07-02T21:33:42;2;2;2
44045;PMS7003;29709;52.396;16.796;2023-07-02T21:36:56;6;4;3
44045;PMS7003;29709;52.396;16.796;2023-07-02T21:40:09;4;3;2
44045;PMS7003;29709;52.396;16.796;2023-07-02T21:46:42;5;4;3
44045;PMS7003;29709;52.396;16.796;2023-07-02T21:49:55;4;3;2
44045;PMS7003;29709;52.396;16.796;2023-07-02T21:53:08;4;3;2
44045;PMS7003;29709;52.396;16.796;2023-07-02T21:56:21;6;6;4
44045;PMS7003;29709;52.396;16.796;2023-07-02T21:59:37;4;3;3
44045;PMS7003;29709;52.396;16.796;2023-07-02T22:02:50;6;3;3